x

8537121 - Ship John Shoal, Nj (sjsn4) Weather Station

5:54am - Sun 17th Feb 2019 All times are EST. -5 hours from GMT.

  • Wind
    10mph, 13mph gusts
  • Sea Temp 38°f
  • Air Temp 29°f
  • Sea Pressure 1018.4mb
  • 8537121 - Ship John Shoal, Nj
  • 8537121 - Ship John Shoal, Nj

More Historic Weather Station data

Upgrade to MSW Pro to gain access to the past 30 days of data for over 8000 Wavebouys and Weather Stations around the globe.

Join

Comparision Forecast

View Surf forecast
   
Sun 02/17 5:54am 10 13 mph 1018.4mb 38f 29f
5:48am 11 13 mph 1018.4mb 38f 29f
5:42am 10 11 mph 1018.4mb 38f 29f
5:36am 10 13 mph 1018.4mb 38f 29f
5:30am 10 13 mph 1018.6mb 38f 29f
5:24am 11 14 mph 1018.2mb 38f 30f
5:18am 11 13 mph 1018.3mb 38f 29f
5:12am 11 13 mph 1018.2mb 38f 30f
5:06am 11 13 mph 1017.9mb 38f 30f
5:00am 10 13 mph 1018mb 38f 30f
4:54am 11 13 mph 1018.1mb 38f 30f
4:48am 10 13 mph 1018.1mb 38f 30f
4:42am 11 13 mph 1018.2mb 38f 30f
4:36am 10 13 mph 1018.2mb 38f 30f
4:30am 13 15 mph 1018.2mb 38f 30f
4:24am 13 16 mph 1018.1mb 38f 30f
4:18am 13 16 mph 1018.1mb 38f 30f
4:12am 14 15 mph 1018mb 38f 30f
4:06am 14 16 mph 1018mb 38f 31f
4:00am 14 16 mph 1018mb 38f 31f
3:54am 14 15 mph 1018mb 38f 31f
3:48am 13 15 mph 1018.2mb 38f 31f
3:42am 13 15 mph 1018.1mb 38f 31f
3:36am 14 15 mph 1018mb 38f 31f
3:30am 15 18 mph 1017.9mb 38f 31f
3:24am 14 17 mph 1018mb 38f 31f
3:18am 14 15 mph 1017.8mb 38f 31f
3:12am 13 15 mph 1017.9mb 38f 31f
3:06am 14 17 mph 1018.1mb 38f 32f
3:00am 16 17 mph 1018.1mb 38f 31f
2:54am 15 17 mph 1018.2mb 38f 32f
2:48am 16 17 mph 1017.9mb 38f 32f
2:42am 15 17 mph 1018.1mb 38f 32f
2:36am 16 20 mph 1017.8mb 38f 32f
2:30am 16 18 mph 1017.8mb 38f 32f
2:24am 15 18 mph 1018mb 38f 32f
2:18am 16 21 mph 1018mb 38f 32f
2:12am 18 21 mph 1017.8mb 38f 33f
2:06am 17 22 mph 1017.6mb 38f 33f
2:00am 17 20 mph 1017.6mb 38f 33f
1:54am 17 20 mph 1017.7mb 38f 33f
1:48am 17 20 mph 1017.7mb 38f 33f
1:42am 16 20 mph 1017.7mb 38f 33f
1:36am 14 17 mph 1017.8mb 38f 33f
1:30am 14 16 mph 1017.6mb 38f 33f
1:24am 15 18 mph 1017.5mb 38f 33f
1:18am 15 17 mph 1017.5mb 38f 33f
1:12am 14 17 mph 1017.4mb 38f 34f
1:06am 16 17 mph 1017.4mb 38f 34f
1:00am 15 18 mph 1017.4mb 38f 34f
12:54am 16 18 mph 1017.4mb 38f 34f
12:48am 16 18 mph 1017.4mb 38f 34f
12:42am 16 18 mph 1017.4mb 38f 34f
12:36am 17 21 mph 1017.3mb 38f 34f
12:30am 20 22 mph 1017.1mb 38f 34f
12:24am 16 20 mph 1017.2mb 38f 34f
12:18am 17 20 mph 1017.4mb 38f 34f
12:12am 16 20 mph 1017.2mb 38f 35f
12:06am 14 17 mph 1017.2mb 38f 35f
12:00am 15 18 mph 1017mb 38f 35f
Sat 02/16 11:54pm 17 20 mph 1016.9mb 38f 35f
11:48pm 14 17 mph 1017mb 38f 35f
11:42pm 16 18 mph 1017.1mb 38f 35f
11:36pm 17 20 mph 1016.9mb 38f 35f
11:30pm 14 16 mph 1016.9mb 38f 35f
11:24pm 14 16 mph 1016.6mb 38f 35f
11:18pm 14 16 mph 1016.7mb 38f 35f
11:12pm 15 16 mph 1016.6mb 38f 35f
11:06pm 13 16 mph 1016.7mb 38f 35f
11:00pm 14 15 mph 1016.7mb 38f 35f
10:54pm 14 15 mph 1016.7mb 38f 36f
10:48pm 14 15 mph 1016.8mb 38f 36f
10:42pm 13 14 mph 1016.7mb 38f 36f
10:36pm 13 13 mph 1016.7mb 38f 36f
10:30pm 10 13 mph 1016.7mb 38f 36f
10:24pm 9 11 mph 1016.7mb 38f 36f
10:18pm 11 13 mph 1016.6mb 38f 37f
10:12pm 11 13 mph 1016.6mb 38f 36f
10:06pm 10 11 mph 1016.4mb 38f 36f
10:00pm 9 10 mph 1016.3mb 38f 36f
9:54pm 9 10 mph 1016.2mb 38f 36f
9:48pm 9 11 mph 1016.1mb 38f 37f
9:42pm 11 14 mph 1016mb 38f 37f
9:36pm 13 14 mph 1015.8mb 38f 37f
9:30pm 10 11 mph 1015.8mb 38f 37f
9:24pm 10 11 mph 1015.7mb 38f 37f
9:18pm 10 11 mph 1015.6mb 38f 37f
9:12pm 10 13 mph 1015.5mb 38f 37f
9:06pm 11 13 mph 1015.3mb 38f 37f
9:00pm 10 11 mph 1015.2mb 38f 37f
8:54pm 10 14 mph 1015.2mb 38f 37f
8:48pm 13 14 mph 1015.1mb 38f 37f
8:42pm 10 13 mph 1015.1mb 38f 37f
8:36pm 11 13 mph 1015mb 38f 37f
8:30pm 11 13 mph 1014.9mb 38f 37f
8:24pm 11 13 mph 1014.8mb 38f 37f
8:18pm 11 13 mph 1014.7mb 38f 37f
8:12pm 11 13 mph 1014.7mb 38f 38f
8:06pm 11 13 mph 1014.6mb 38f 38f
8:00pm 10 13 mph 1014.6mb 38f 38f
7:54pm 10 11 mph 1014.4mb 38f 38f
7:48pm 10 13 mph 1014.4mb 38f 38f
7:42pm 11 14 mph 1014.3mb 38f 38f
7:36pm 11 13 mph 1014.3mb 38f 38f
7:30pm 11 13 mph 1014.2mb 38f 38f
7:24pm 13 14 mph 1014.2mb 38f 38f
7:18pm 13 14 mph 1014.2mb 38f 38f
7:12pm 13 14 mph 1014.2mb 38f 38f
7:06pm 11 13 mph 1014mb 38f 38f
7:00pm 10 11 mph 1013.9mb 38f 38f
6:54pm 10 11 mph 1013.8mb 38f 38f
6:48pm 9 10 mph 1013.7mb 38f 38f
6:42pm 9 10 mph 1013.6mb 38f 38f
6:36pm 9 10 mph 1013.5mb 38f 38f
6:30pm 10 11 mph 1013.4mb 38f 39f
6:24pm 10 13 mph 1013.3mb 38f 39f
6:18pm 8 10 mph 1013.2mb 38f 39f
6:12pm 9 14 mph 1013.1mb 38f 39f
6:06pm 13 15 mph 1013mb 38f 40f
6:00pm 13 14 mph 1013mb 38f 40f
5:54pm 13 15 mph 1012.9mb 38f 40f
5:48pm 13 14 mph 1012.8mb 38f 40f
5:42pm 13 14 mph 1012.8mb 38f 40f
5:36pm 14 15 mph 1012.7mb 38f 40f
5:30pm 14 16 mph 1012.6mb 38f 40f
5:24pm 15 16 mph 1012.6mb 38f 40f
5:18pm 15 16 mph 1012.5mb 38f 41f
5:12pm 14 16 mph 1012.5mb 38f 40f
5:00pm 15 16 mph 1012.2mb 38f 40f
4:54pm 15 16 mph 1012.1mb 38f 40f
4:48pm 15 16 mph 1012mb 38f 40f
4:42pm 14 15 mph 1012.1mb 38f 40f
4:36pm 14 16 mph 1012.1mb 38f 40f
4:30pm 15 17 mph 1012mb 38f 40f
4:24pm 13 15 mph 1011.9mb 38f 40f
4:18pm 15 17 mph 1011.8mb 38f 40f
4:12pm 14 16 mph 1011.5mb 38f 41f
4:06pm 13 15 mph 1011.4mb 38f 41f
4:00pm 14 15 mph 1011.4mb 38f 40f
3:54pm 13 14 mph 1011.4mb 38f 40f
3:48pm 13 14 mph 1011.3mb 38f 40f
3:42pm 14 16 mph 1011.4mb 38f 40f
3:36pm 14 16 mph 1011.4mb 38f 40f
3:30pm 14 16 mph 1011.4mb 38f 40f
3:24pm 14 16 mph 1011.3mb 38f 40f
3:18pm 14 16 mph 1011.3mb 38f 40f
3:12pm 11 14 mph 1011.4mb 38f 40f
3:06pm 13 14 mph 1011.5mb 38f 40f
3:00pm 13 14 mph 1011.3mb 38f 40f
2:54pm 10 13 mph 1011.4mb 38f 39f
2:48pm 11 13 mph 1011.4mb 38f 39f
2:42pm 11 13 mph 1011.5mb 38f 39f
2:36pm 11 13 mph 1011.6mb 38f 39f
2:30pm 11 13 mph 1011.6mb 38f 39f
2:24pm 13 13 mph 1011.4mb 38f 39f
2:18pm 10 13 mph 1011.3mb 38f 39f
2:12pm 13 13 mph 1011.4mb 38f 39f
2:06pm 13 14 mph 1011.5mb 38f 39f
2:00pm 11 13 mph 1011.6mb 38f 39f
1:54pm 13 14 mph 1011.7mb 38f 39f
1:48pm 14 14 mph 1011.7mb 38f 39f
1:42pm 11 14 mph 1011.8mb 38f 39f
1:36pm 13 14 mph 1011.6mb 38f 39f
1:30pm 11 13 mph 1011.7mb 38f 38f
1:24pm 11 13 mph 1011.7mb 38f 38f
1:18pm 10 13 mph 1011.6mb 38f 38f
1:12pm 13 13 mph 1011.7mb 38f 38f
1:06pm 13 13 mph 1011.8mb 38f 38f
1:00pm 13 14 mph 1011.7mb 38f 38f
12:54pm 11 15 mph 1011.6mb 38f 38f
12:48pm 14 15 mph 1011.8mb 38f 38f
12:42pm 15 16 mph 1012mb 38f 38f
12:36pm 11 15 mph 1012.2mb 38f 38f
12:30pm 15 16 mph 1012.2mb 38f 37f
12:24pm 15 16 mph 1012.4mb 38f 37f
12:18pm 15 16 mph 1012.4mb 38f 37f
12:12pm 15 16 mph 1012.4mb 38f 37f
12:06pm 14 15 mph 1012.6mb 38f 37f
11:54am 16 17 mph 1012.9mb 38f 37f
11:48am 14 16 mph 1012.9mb 38f 37f
11:42am 15 16 mph 1013mb 38f 37f
11:36am 15 17 mph 1012.9mb 38f 37f
11:30am 16 17 mph 1013mb 38f 37f
11:24am 16 18 mph 1013mb 38f 37f
11:18am 17 18 mph 1012.9mb 38f 37f
11:12am 16 20 mph 1013mb 38f 37f
11:06am 17 20 mph 1012.9mb 38f 37f
11:00am 17 20 mph 1012.7mb 38f 37f
10:54am 17 18 mph 1012.5mb 38f 36f
10:48am 15 16 mph 1012.6mb 38f 37f
10:42am 17 18 mph 1012.7mb 38f 37f
10:36am 17 20 mph 1012.6mb 38f 36f
10:30am 15 18 mph 1012.8mb 38f 36f
10:24am 17 20 mph 1012.8mb 38f 37f
10:18am 17 20 mph 1012.7mb 38f 37f
10:12am 16 20 mph 1012.9mb 38f 37f
10:06am 18 20 mph 1013mb 38f 37f
10:00am 18 21 mph 1012.8mb 38f 37f
9:54am 18 21 mph 1012.8mb 38f 37f
9:48am 20 21 mph 1012.7mb 38f 37f
9:42am 16 20 mph 1012.7mb 38f 37f
9:36am 18 21 mph 1012.5mb 38f 37f
9:30am 17 20 mph 1012.3mb 38f 37f
9:24am 17 20 mph 1012.4mb 38f 37f
9:18am 16 20 mph 1012.5mb 38f 37f
9:12am 17 20 mph 1012.4mb 38f 37f
9:06am 17 20 mph 1012.3mb 38f 37f
9:00am 17 20 mph 1012.5mb 38f 37f
8:54am 16 21 mph 1012.5mb 38f 37f
8:48am 16 21 mph 1012.4mb 38f 37f
8:42am 18 21 mph 1012.3mb 38f 37f
8:36am 18 22 mph 1012.2mb 38f 37f
8:30am 18 21 mph 1012.1mb 38f 37f
8:24am 20 23 mph 1012mb 38f 37f
8:18am 20 23 mph 1012mb 38f 37f
8:12am 21 24 mph 1011.9mb 38f 37f
8:06am 22 25 mph 1011.8mb 38f 37f
8:00am 24 26 mph 1011.6mb 38f 37f
7:54am 24 28 mph 1011.6mb 38f 37f
7:48am 22 26 mph 1011.7mb 38f 37f
7:42am 21 23 mph 1011.6mb 38f 38f
7:36am 16 17 mph 1011.6mb 38f 38f
7:30am 15 17 mph 1011.5mb 38f 38f
7:24am 14 15 mph 1011.5mb 38f 37f
7:18am 14 15 mph 1011.4mb 38f 37f
7:12am 14 15 mph 1011.2mb 38f 38f
7:06am 14 15 mph 1011mb 38f 38f
7:00am 14 15 mph 1011mb 38f 38f
6:54am 14 17 mph 1011mb 38f 38f
6:48am 13 16 mph 1011.1mb 38f 38f
6:42am 15 18 mph 1011mb 38f 38f
6:36am 16 18 mph 1010.9mb 38f 38f
6:30am 16 18 mph 1010.8mb 38f 38f
6:24am 16 18 mph 1010.7mb 38f 39f
6:18am 17 18 mph 1010.6mb 38f 39f
6:12am 16 20 mph 1010.5mb 38f 39f
6:06am 17 21 mph 1010.6mb 38f 39f
6:00am 18 21 mph 1010.4mb 38f 39f
5:54am 15 17 mph 1010.5mb 38f 39f
5:48am 13 14 mph 1010.5mb 38f 39f
5:42am 14 17 mph 1010.5mb 38f 39f
5:36am 14 17 mph 1010.3mb 38f 40f
5:30am 14 15 mph 1010.3mb 38f 39f
5:24am 15 16 mph 1010.2mb 38f 40f
5:18am 16 18 mph 1010.1mb 38f 40f
5:12am 16 18 mph 1010.2mb 38f 40f
5:06am 14 17 mph 1010.1mb 38f 40f
5:00am 16 20 mph 1010mb 38f 40f
4:54am 17 20 mph 1009.9mb 38f 40f
4:48am 17 20 mph 1009.8mb 38f 40f
4:42am 20 23 mph 1009.7mb 38f 41f
4:36am 21 23 mph 1009.5mb 38f 41f
4:30am 22 24 mph 1009.4mb 38f 41f
4:24am 21 24 mph 1009.4mb 38f 41f
4:18am 21 24 mph 1009.3mb 38f 41f
4:12am 22 25 mph 1009.3mb 38f 41f
4:06am 21 23 mph 1009.2mb 38f 41f
4:00am 18 21 mph 1009.2mb 38f 41f
3:54am 16 18 mph 1009.2mb 38f 41f
3:48am 16 17 mph 1009.1mb 38f 41f
3:42am 15 17 mph 1009.1mb 38f 40f
3:36am 17 21 mph 1009mb 38f 41f
3:30am 18 20 mph 1008.9mb 38f 42f
3:24am 17 20 mph 1008.9mb 38f 42f
3:18am 18 20 mph 1008.8mb 38f 42f
3:12am 18 20 mph 1008.8mb 38f 42f
3:06am 16 20 mph 1008.8mb 38f 42f
3:00am 17 18 mph 1008.6mb 38f 42f
2:54am 15 17 mph 1008.6mb 38f 42f
2:48am 16 18 mph 1008.5mb 38f 42f
2:42am 16 17 mph 1008.5mb 38f 42f
2:36am 16 18 mph 1008.6mb 38f 42f
2:30am 17 20 mph 1008.5mb 38f 43f
2:24am 17 18 mph 1008.5mb 38f 43f
2:18am 16 18 mph 1008.5mb 38f 43f
2:12am 17 20 mph 1008.4mb 38f 43f
2:06am 16 17 mph 1008.4mb 38f 43f
2:00am 16 17 mph 1008.4mb 38f 43f
1:54am 16 17 mph 1008.3mb 38f 43f
1:48am 16 17 mph 1008.2mb 38f 43f
1:42am 17 18 mph 1008.1mb 38f 43f
1:36am 18 21 mph 1007.9mb 38f 44f
1:30am 20 22 mph 1007.8mb 38f 44f
1:24am 20 21 mph 1008mb 38f 44f
1:18am 18 21 mph 1008.1mb 38f 44f
1:12am 17 20 mph 1008.1mb 38f 44f
1:06am 18 21 mph 1008mb 38f 45f
1:00am 21 22 mph 1008.1mb 38f 45f
12:54am 20 21 mph 1008.1mb 38f 45f
12:48am 18 21 mph 1008.1mb 38f 45f
12:42am 18 22 mph 1007.9mb 38f 45f
12:36am 22 22 mph 1007.7mb 38f 46f
12:30am 23 24 mph 1007.5mb 38f 46f
12:24am 24 28 mph 1007.5mb 38f 47f
12:18am 26 30 mph 1007.4mb 38f 47f
12:12am 29 29 mph 1007.3mb 38f 47f
12:06am 25 28 mph 1007.4mb 38f 47f
12:00am 25 29 mph 1007.4mb 38f 47f
Fri 02/15 11:30pm 20 22 mph 1007mb 38f 47f
11:24pm 20 21 mph 1007mb 38f 46f
11:18pm 18 21 mph 1006.9mb 38f 48f
11:12pm 20 22 mph 1006.8mb 38f 51f
11:06pm 16 17 mph 1006.8mb 38f 51f
11:00pm 16 17 mph 1006.8mb 38f 50f
10:54pm 17 17 mph 1006.7mb 38f 51f
10:48pm 16 17 mph 1006.7mb 38f 47f
10:42pm 16 17 mph 1006.5mb 38f 49f
10:36pm 17 17 mph 1006.6mb 38f 49f
10:30pm 17 20 mph 1006.6mb 38f 48f
10:24pm 18 20 mph 1006.5mb 38f 51f
10:18pm 18 20 mph 1006.4mb 38f 52f
10:12pm 15 16 mph 1006.3mb 38f 50f
10:06pm 15 17 mph 1006.3mb 38f 51f
10:00pm 15 16 mph 1006.3mb 38f 54f
9:54pm 14 16 mph 1006.2mb 38f 51f
9:48pm 13 14 mph 1006mb 38f 53f
9:42pm 13 15 mph 1005.9mb 38f 55f
9:36pm 13 14 mph 1005.8mb 38f 56f
9:30pm 13 14 mph 1005.6mb 38f 55f
9:24pm 11 13 mph 1005.6mb 38f 54f
9:18pm 10 11 mph 1005.5mb 38f 53f
9:12pm 11 14 mph 1005.5mb 38f 53f
9:06pm 13 13 mph 1005.4mb 38f 52f
9:00pm 13 14 mph 1005.2mb 38f 53f
8:54pm 13 15 mph 1005mb 38f 53f
8:48pm 14 14 mph 1004.8mb 38f 52f
8:42pm 13 14 mph 1004.8mb 38f 52f
8:36pm 13 14 mph 1004.7mb 38f 53f
8:30pm 14 15 mph 1004.7mb 38f 53f
8:24pm 14 14 mph 1004.7mb 38f 54f
8:18pm 13 14 mph 1004.7mb 38f 55f
8:12pm 14 14 mph 1004.6mb 37f 55f
8:06pm 14 14 mph 1004.6mb 37f 55f
8:00pm 14 14 mph 1004.6mb 37f 55f
7:48pm 13 14 mph 1004.6mb 37f 55f
7:42pm 14 14 mph 1004.6mb 37f 56f
7:36pm 14 15 mph 1004.5mb 37f 56f
7:30pm 14 15 mph 1004.5mb 37f 56f
7:24pm 14 14 mph 1004.6mb 37f 53f
7:18pm 14 16 mph 1004.6mb 37f 56f
7:12pm 14 15 mph 1004.6mb 37f 55f
7:06pm 14 16 mph 1004.7mb 37f 53f
7:00pm 15 16 mph 1004.7mb 37f 52f
6:54pm 16 17 mph 1004.6mb 37f 53f
6:48pm 16 17 mph 1004.6mb 37f 54f
6:42pm 16 18 mph 1004.5mb 37f 54f
6:36pm 16 18 mph 1004.5mb 37f 55f
6:30pm 16 17 mph 1004.5mb 37f 54f
6:24pm 16 18 mph 1004.4mb 37f 55f
6:18pm 16 17 mph 1004.3mb 37f 54f
6:12pm 16 20 mph 1004.3mb 37f 54f
6:06pm 16 18 mph 1004.2mb 37f 54f
6:00pm 17 20 mph 1004.1mb 37f 53f
5:54pm 18 21 mph 1004.1mb 37f 53f
5:48pm 21 22 mph 1004mb 37f 53f
5:42pm 21 22 mph 1003.9mb 37f 53f
5:36pm 20 21 mph 1003.8mb 37f 53f
5:30pm 20 21 mph 1003.9mb 38f 53f
5:24pm 17 18 mph 1003.9mb 38f 51f
5:18pm 16 17 mph 1003.8mb 38f 50f
5:12pm 16 17 mph 1003.8mb 38f 51f
5:06pm 17 17 mph 1003.9mb 38f 53f
5:00pm 16 18 mph 1003.8mb 38f 53f
4:54pm 18 18 mph 1003.6mb 38f 55f
4:48pm 18 20 mph 1003.6mb 38f 53f
4:42pm 18 20 mph 1003.6mb 38f 55f
4:36pm 18 21 mph 1003.6mb 38f 53f
4:30pm 17 20 mph 1003.8mb 38f 54f
4:24pm 17 20 mph 1003.8mb 38f 55f
4:18pm 20 22 mph 1003.8mb 38f 54f
4:12pm 20 22 mph 1003.8mb 38f 53f
4:06pm 20 22 mph 1003.8mb 38f 54f
4:00pm 22 24 mph 1003.7mb 38f 54f
3:54pm 23 24 mph 1003.8mb 38f 54f
3:48pm 20 22 mph 1003.9mb 38f 53f
3:42pm 17 20 mph 1003.9mb 38f 54f
3:36pm 15 17 mph 1004.1mb 38f 52f
3:30pm 17 22 mph 1004.1mb 38f 52f
3:24pm 18 21 mph 1004mb 38f 56f
3:18pm 18 21 mph 1004.1mb 38f 56f
3:12pm 21 24 mph 1004.1mb 38f 56f
3:06pm 22 23 mph 1004.1mb 38f 56f
3:00pm 22 25 mph 1004.1mb 38f 56f
2:54pm 23 25 mph 1004.2mb 38f 56f
2:48pm 24 26 mph 1004.1mb 38f 56f
2:42pm 24 26 mph 1004.2mb 38f 56f
2:36pm 24 28 mph 1004.2mb 38f 56f
2:30pm 24 26 mph 1004.2mb 38f 56f
2:24pm 23 26 mph 1004.3mb 38f 58f
2:18pm 22 25 mph 1004.3mb 38f 56f
2:12pm 23 25 mph 1004.3mb 38f 56f
2:00pm 22 25 mph 1004.5mb 38f 56f
1:54pm 24 26 mph 1004.5mb 38f 56f
1:48pm 23 25 mph 1004.6mb 38f 56f
1:42pm 25 29 mph 1004.7mb 38f 56f
1:36pm 25 28 mph 1004.7mb 38f 55f
1:30pm 20 23 mph 1004.9mb 38f 55f
1:24pm 15 17 mph 1005.2mb 38f 53f
1:18pm 17 23 mph 1005.2mb 38f 53f
1:12pm 22 26 mph 1005.2mb 38f 56f
1:06pm 16 21 mph 1005.3mb 38f 54f
1:00pm 14 18 mph 1005.4mb 38f 54f
12:54pm 17 21 mph 1005.4mb 37f 53f
12:48pm 20 22 mph 1005.4mb 37f 53f
12:42pm 21 22 mph 1005.4mb 37f 54f
12:36pm 20 23 mph 1005.6mb 37f 54f
12:30pm 18 22 mph 1005.9mb 37f 53f
12:24pm 20 22 mph 1006mb 37f 53f
12:18pm 20 24 mph 1006.1mb 37f 53f
12:12pm 22 29 mph 1005.8mb 37f 52f
12:06pm 24 29 mph 1005.8mb 37f 52f
12:00pm 25 28 mph 1006mb 37f 52f
11:54am 28 30 mph 1006.1mb 37f 52f
11:48am 25 28 mph 1006.4mb 37f 52f
11:42am 22 26 mph 1006.7mb 37f 50f
11:36am 24 25 mph 1006.9mb 37f 52f
11:30am 23 25 mph 1007.1mb 37f 52f
11:24am 22 24 mph 1007.3mb 37f 52f
11:18am 22 28 mph 1007.3mb 37f 52f
11:12am 22 28 mph 1007.3mb 37f 52f
11:06am 23 26 mph 1007.4mb 37f 52f
11:00am 24 28 mph 1007.4mb 37f 52f
10:54am 23 28 mph 1007.5mb 37f 51f
10:48am 24 28 mph 1007.6mb 37f 51f
10:42am 25 29 mph 1007.6mb 37f 52f
10:36am 26 30 mph 1007.6mb 37f 53f
10:30am 25 30 mph 1007.6mb 37f 51f
10:24am 28 31 mph 1007.7mb 37f 52f
10:18am 25 29 mph 1007.9mb 37f 51f
10:12am 26 31 mph 1007.9mb 37f 52f
10:06am 25 32 mph 1008.1mb 37f 52f
10:00am 26 32 mph 1008.2mb 37f 52f
9:54am 23 26 mph 1008.4mb 37f 51f
9:48am 22 26 mph 1008.5mb 37f 50f
9:42am 21 23 mph 1008.6mb 37f 49f
9:36am 21 24 mph 1008.7mb 37f 50f
9:30am 22 23 mph 1008.7mb 37f 49f
9:24am 22 24 mph 1008.7mb 37f 48f
9:18am 20 22 mph 1008.8mb 37f 47f
9:12am 22 25 mph 1008.8mb 37f 48f
9:06am 21 25 mph 1008.8mb 37f 48f
9:00am 22 25 mph 1008.9mb 37f 49f
8:48am 21 25 mph 1009mb 37f 49f
8:42am 22 23 mph 1009.1mb 37f 47f
8:36am 20 23 mph 1009.1mb 37f 46f
8:30am 23 26 mph 1009.1mb 37f 46f
8:24am 22 25 mph 1009.1mb 37f 46f
8:18am 24 25 mph 1009.1mb 37f 46f
8:12am 23 25 mph 1009.1mb 37f 45f
8:06am 23 24 mph 1009.1mb 37f 45f
8:00am 23 25 mph 1009.1mb 37f 45f
7:48am 23 23 mph 1009.1mb 37f 44f
7:42am 23 24 mph 1009.1mb 37f 45f
7:36am 22 23 mph 1009mb 37f 44f
7:30am 22 24 mph 1008.9mb 37f 44f
7:24am 22 23 mph 1008.8mb 37f 44f
7:18am 21 23 mph 1009mb 37f 44f
7:12am 21 23 mph 1008.8mb 37f 44f
7:06am 21 23 mph 1008.6mb 37f 44f
7:00am 20 24 mph 1008.7mb 37f 44f
6:54am 23 25 mph 1008.6mb 37f 44f
6:48am 22 26 mph 1008.6mb 37f 43f
6:42am 24 25 mph 1008.5mb 37f 43f
6:36am 25 26 mph 1008.9mb 37f 43f
6:30am 24 25 mph 1009mb 37f 43f
6:24am 24 25 mph 1009.2mb 37f 43f
6:18am 23 26 mph 1009.2mb 37f 43f
6:12am 24 25 mph 1009mb 37f 43f
6:06am 25 32 mph 1009.2mb 37f 44f
6:00am 29 33 mph 1008.9mb 37f 44f
5:54am 28 31 mph 1008.9mb 37f 44f
5:48am 26 30 mph 1009.1mb 37f 45f
5:42am 21 24 mph 1010.3mb 37f 43f
5:36am 18 21 mph 1010.5mb 37f 42f
5:30am 18 20 mph 1010.5mb 37f 42f
5:24am 16 16 mph 1010.7mb 37f 41f
5:18am 16 17 mph 1010.8mb 37f 41f
5:12am 18 20 mph 1010.6mb 37f 42f
5:06am 17 18 mph 1010.6mb 37f 42f
5:00am 16 18 mph 1010.5mb 37f 43f
4:48am 17 18 mph 1010.4mb 37f 43f
4:42am 16 18 mph 1010.3mb 37f 43f
4:36am 17 18 mph 1010.3mb 37f 44f
4:30am 16 18 mph 1010.6mb 37f 43f
4:24am 16 18 mph 1010.7mb 37f 44f
4:18am 17 18 mph 1010.6mb 37f 43f
4:12am 15 16 mph 1010.6mb 37f 42f
4:06am 15 17 mph 1010.8mb 37f 42f
4:00am 17 18 mph 1010.9mb 37f 42f
3:54am 14 16 mph 1010.9mb 37f 41f
3:48am 16 16 mph 1010.7mb 37f 41f
3:42am 15 17 mph 1010.7mb 37f 40f
3:36am 17 20 mph 1010.7mb 37f 40f
3:30am 20 21 mph 1010.9mb 37f 40f
3:24am 21 23 mph 1010.9mb 37f 41f
3:18am 22 23 mph 1010.7mb 37f 40f
3:12am 23 24 mph 1010.8mb 37f 41f
3:06am 21 22 mph 1011.2mb 37f 41f
3:00am 20 24 mph 1011.3mb 37f 40f
2:54am 23 23 mph 1011.3mb 37f 40f
2:48am 20 23 mph 1011.6mb 37f 40f
2:42am 22 23 mph 1011.6mb 37f 40f
2:36am 21 23 mph 1011.7mb 37f 40f
2:30am 22 23 mph 1011.8mb 37f 40f
2:24am 18 21 mph 1012mb 37f 40f
2:18am 21 21 mph 1012.3mb 37f 40f
2:12am 21 22 mph 1012.5mb 37f 40f
2:06am 22 23 mph 1012.7mb 37f 40f
2:00am 22 25 mph 1012.8mb 37f 39f
1:54am 23 25 mph 1012.7mb 37f 40f
1:48am 22 24 mph 1012.8mb 37f 40f
1:42am 22 24 mph 1012.8mb 37f 39f
1:36am 22 24 mph 1013mb 37f 39f
1:30am 23 24 mph 1013.1mb 37f 39f
1:24am 23 24 mph 1013.1mb 37f 39f
1:18am 22 23 mph 1013.1mb 37f 39f
1:12am 22 24 mph 1013.3mb 37f 39f
1:06am 22 23 mph 1013.2mb 37f 39f
1:00am 22 23 mph 1013.3mb 37f 39f
12:54am 21 22 mph 1013.3mb 37f 39f
12:48am 21 23 mph 1013.5mb 37f 39f
12:42am 21 22 mph 1013.7mb 37f 39f
12:36am 20 22 mph 1013.8mb 37f 39f
12:30am 21 22 mph 1013.8mb 37f 39f
12:24am 20 21 mph 1013.8mb 37f 39f
12:18am 20 21 mph 1013.9mb 37f 39f
12:12am 18 20 mph 1014.1mb 37f 39f
12:06am 16 17 mph 1014.3mb 37f 39f
12:00am 17 17 mph 1014.2mb 37f 39f
Thu 02/14 11:30pm 14 14 mph 1015mb 37f 39f
11:24pm 14 15 mph 1015mb 37f 39f
11:18pm 14 15 mph 1015mb 37f 39f
11:12pm 14 16 mph 1015.2mb 37f 40f
11:06pm 16 17 mph 1015.2mb 37f 40f
11:00pm 16 17 mph 1015.3mb 37f 40f
10:54pm 15 18 mph 1015.5mb 37f 40f
10:48pm 18 22 mph 1015.3mb 37f 41f
10:42pm 21 22 mph 1015.3mb 37f 40f
10:36pm 18 20 mph 1015.5mb 37f 40f
10:30pm 17 18 mph 1015.7mb 37f 40f
10:24pm 16 18 mph 1015.8mb 37f 40f
10:18pm 17 18 mph 1015.9mb 37f 40f
10:12pm 18 21 mph 1015.9mb 37f 40f
10:06pm 20 22 mph 1015.9mb 37f 40f
10:00pm 20 22 mph 1015.9mb 37f 40f
9:54pm 18 21 mph 1016.1mb 37f 40f
9:48pm 20 22 mph 1016mb 37f 40f
9:42pm 21 22 mph 1015.9mb 37f 40f
9:36pm 21 22 mph 1016.1mb 37f 40f
9:30pm 21 23 mph 1016.2mb 37f 40f
9:24pm 20 21 mph 1016.4mb 37f 40f
9:18pm 17 18 mph 1016.5mb 37f 40f
9:12pm 17 18 mph 1016.5mb 37f 40f
9:06pm 16 16 mph 1016.5mb 37f 39f
9:00pm 15 16 mph 1016.5mb 37f 39f
8:54pm 15 17 mph 1016.5mb 37f 39f
8:48pm 15 16 mph 1016.5mb 37f 39f
8:42pm 15 15 mph 1016.6mb 37f 39f
8:36pm 13 14 mph 1016.6mb 37f 39f
8:30pm 13 13 mph 1016.6mb 37f 39f
8:24pm 13 15 mph 1016.5mb 37f 39f
8:18pm 14 16 mph 1016.6mb 37f 39f
8:12pm 15 17 mph 1016.5mb 37f 39f
8:06pm 16 17 mph 1016.5mb 37f 39f
8:00pm 16 18 mph 1016.3mb 37f 39f
7:30pm 15 16 mph 1016.5mb 37f 40f
7:24pm 15 16 mph 1016.5mb 37f 39f
7:18pm 15 16 mph 1016.6mb 37f 39f
7:12pm 16 20 mph 1016.6mb 37f 39f
7:06pm 17 18 mph 1016.4mb 37f 39f
7:00pm 17 18 mph 1016.4mb 37f 39f
6:30pm 13 14 mph 1016.8mb 37f 38f
6:24pm 14 15 mph 1016.7mb 37f 39f
6:18pm 15 15 mph 1016.8mb 37f 39f
6:12pm 15 16 mph 1016.8mb 37f 39f
6:06pm 15 16 mph 1016.8mb 37f 39f
6:00pm 15 15 mph 1016.9mb 37f 39f
5:54pm 15 16 mph 1016.9mb 37f 39f
5:48pm 14 16 mph 1016.9mb 37f 39f
5:42pm 15 16 mph 1016.9mb 37f 39f
5:36pm 15 16 mph 1016.8mb 37f 39f
5:30pm 15 16 mph 1016.9mb 37f 39f
5:24pm 16 17 mph 1017mb 37f 39f
5:18pm 16 17 mph 1017.1mb 37f 39f
5:12pm 15 16 mph 1017.2mb 37f 39f
5:06pm 15 17 mph 1017.3mb 37f 39f
5:00pm 16 17 mph 1017.2mb 37f 39f
4:30pm 16 18 mph 1017.5mb 37f 39f
4:24pm 17 20 mph 1017.4mb 37f 39f
4:18pm 17 18 mph 1017.4mb 37f 40f
4:12pm 15 16 mph 1017.5mb 37f 40f
4:06pm 16 16 mph 1017.6mb 37f 40f
4:00pm 15 16 mph 1017.8mb 37f 39f
3:54pm 15 16 mph 1017.9mb 37f 40f
3:48pm 16 17 mph 1018mb 37f 40f
3:42pm 10 13 mph 1018mb 37f 42f
3:36pm 3 5 mph 1018.1mb 37f 48f
3:30pm 5 7 mph 1018.2mb 37f 48f
3:24pm 6 8 mph 1018.3mb 37f 47f
3:18pm 6 8 mph 1018.3mb 37f 47f
3:12pm 6 8 mph 1018.3mb 37f 48f
3:06pm 7 9 mph 1018.3mb 37f 48f
3:00pm 8 9 mph 1018.3mb 37f 47f
2:30pm 10 11 mph 1018.4mb 37f 47f
2:24pm 10 13 mph 1018.4mb 37f 46f
2:18pm 11 15 mph 1018.5mb 37f 46f
2:12pm 14 15 mph 1018.6mb 37f 46f
2:00pm 11 14 mph 1018.6mb 37f 45f
1:30pm 17 21 mph 1018.5mb 37f 46f
1:24pm 17 18 mph 1018.9mb 37f 45f
1:18pm 14 17 mph 1018.9mb 37f 43f
1:12pm 10 11 mph 1018.9mb 37f 42f
1:06pm 6 8 mph 1018.7mb 37f 41f
1:00pm 8 10 mph 1018.2mb 37f 42f
12:54pm 10 10 mph 1018.1mb 37f 42f
12:48pm 8 13 mph 1018.3mb 37f 42f
12:42pm 11 13 mph 1018.6mb 37f 42f
12:36pm 11 13 mph 1018.8mb 37f 41f
12:30pm 10 13 mph 1018.9mb 37f 41f
12:24pm 13 14 mph 1018.9mb 37f 41f
12:18pm 9 14 mph 1018.9mb 37f 40f
12:12pm 13 14 mph 1018.9mb 37f 41f
12:06pm 14 15 mph 1018.9mb 37f 41f
12:00pm 14 16 mph 1019.2mb 37f 41f
11:54am 16 16 mph 1019.1mb 37f 41f
11:48am 16 17 mph 1019.2mb 37f 41f
11:42am 16 16 mph 1019.5mb 37f 41f
11:36am 15 17 mph 1019.6mb 37f 41f
11:30am 16 17 mph 1019.6mb 37f 42f
11:24am 15 18 mph 1019.9mb 37f 41f
11:18am 14 18 mph 1019.9mb 37f 41f
11:12am 15 16 mph 1019.9mb 37f 41f
11:06am 14 15 mph 1019.9mb 37f 41f
10:30am 14 21 mph 1019.9mb 36f 41f
10:24am 17 22 mph 1019.9mb 36f 41f
10:18am 18 23 mph 1019.9mb 36f 41f
10:12am 17 22 mph 1019.9mb 36f 41f
10:06am 16 21 mph 1019.9mb 36f 41f
10:00am 20 22 mph 1019.9mb 36f 41f
9:30am 11 14 mph 1019.9mb 36f 39f
9:24am 14 15 mph 1019.9mb 36f 39f
9:18am 11 14 mph 1019.9mb 36f 39f
9:12am 10 14 mph 1019.9mb 36f 38f
9:06am 9 10 mph 1019.9mb 36f 37f
9:00am 9 11 mph 1019.8mb 36f 36f
8:54am 9 10 mph 1019.6mb 36f 36f
8:48am 9 9 mph 1019.5mb 36f 36f
8:42am 8 8 mph 1019.5mb 36f 36f
8:36am 7 9 mph 1019.4mb 36f 36f
8:30am 8 10 mph 1019.4mb 36f 36f
8:24am 10 11 mph 1019.3mb 36f 36f
8:18am 10 11 mph 1019.2mb 36f 36f
8:12am 10 11 mph 1019.2mb 36f 36f
8:06am 11 11 mph 1019.1mb 36f 36f
8:00am 9 10 mph 1019.2mb 36f 36f
7:30am 10 11 mph 1019.3mb 37f 36f
7:24am 11 11 mph 1019.3mb 37f 35f
7:18am 10 14 mph 1019.2mb 37f 36f
7:12am 13 14 mph 1019.1mb 37f 36f
7:06am 13 15 mph 1019mb 37f 36f
7:00am 13 14 mph 1018.8mb 37f 37f
6:30am 11 13 mph 1018.7mb 37f 35f
6:24am 13 14 mph 1018.7mb 37f 35f
6:18am 13 14 mph 1018.6mb 37f 35f
6:12am 11 14 mph 1018.5mb 37f 35f
6:06am 13 15 mph 1018.4mb 37f 35f
6:00am 14 14 mph 1018.3mb 37f 35f
5:54am 13 14 mph 1018.4mb 37f 35f
5:48am 11 11 mph 1018.4mb 37f 34f
5:42am 10 11 mph 1018.4mb 37f 34f
5:36am 9 11 mph 1018.4mb 37f 34f
5:30am 10 11 mph 1018.3mb 37f 34f
5:24am 10 11 mph 1018.2mb 37f 34f
5:18am 9 10 mph 1018.2mb 37f 35f
5:12am 8 10 mph 1018.1mb 37f 35f
5:00am 9 10 mph 1018mb 37f 35f
4:54am 9 11 mph 1017.9mb 37f 35f
4:48am 10 11 mph 1017.9mb 37f 35f
4:42am 10 14 mph 1017.8mb 37f 35f
4:36am 11 13 mph 1017.7mb 37f 35f
4:30am 11 14 mph 1017.7mb 37f 35f
4:24am 11 17 mph 1017.6mb 37f 36f
4:18am 13 15 mph 1017.5mb 37f 36f
4:12am 13 15 mph 1017.3mb 37f 36f
4:06am 13 15 mph 1017.2mb 37f 36f
4:00am 14 15 mph 1017.1mb 37f 35f
3:54am 14 15 mph 1017.1mb 37f 35f
3:48am 13 15 mph 1017.1mb 37f 35f
3:42am 14 14 mph 1017mb 37f 35f
3:36am 13 15 mph 1016.9mb 37f 35f
3:30am 14 16 mph 1016.7mb 37f 35f
3:24am 13 15 mph 1016.7mb 37f 35f
3:18am 14 15 mph 1016.6mb 37f 35f
3:12am 15 20 mph 1016.5mb 37f 35f
3:06am 17 22 mph 1016.4mb 37f 35f
3:00am 16 18 mph 1016.3mb 37f 35f
2:54am 14 15 mph 1016.2mb 37f 35f
2:48am 15 17 mph 1016.1mb 37f 35f
2:42am 14 17 mph 1016.1mb 37f 35f
2:36am 14 16 mph 1015.9mb 37f 35f
2:30am 14 16 mph 1015.8mb 37f 35f
2:24am 14 15 mph 1015.7mb 37f 35f
2:18am 14 15 mph 1015.7mb 37f 35f
2:12am 14 16 mph 1015.5mb 37f 35f
2:06am 13 15 mph 1015.5mb 37f 34f
2:00am 13 14 mph 1015.4mb 36f 34f
1:54am 13 14 mph 1015.3mb 36f 35f
1:48am 13 16 mph 1015.2mb 36f 35f
1:42am 14 15 mph 1015.1mb 36f 35f
1:36am 14 15 mph 1015mb 36f 36f
1:30am 13 14 mph 1014.8mb 36f 36f
1:24am 11 13 mph 1014.7mb 36f 35f
1:18am 10 11 mph 1014.7mb 36f 35f
1:12am 10 10 mph 1014.8mb 36f 35f
1:06am 9 9 mph 1014.8mb 36f 35f
1:00am 8 9 mph 1014.7mb 36f 35f
12:54am 8 9 mph 1014.7mb 36f 35f
12:48am 9 9 mph 1014.7mb 37f 35f
12:42am 9 9 mph 1014.6mb 37f 35f
12:36am 8 9 mph 1014.5mb 37f 35f
12:30am 9 10 mph 1014.5mb 37f 36f
12:24am 10 10 mph 1014.5mb 37f 36f
12:18am 10 10 mph 1014.3mb 37f 35f
12:12am 10 10 mph 1014.3mb 37f 35f
12:06am 9 10 mph 1014.2mb 37f 35f
12:00am 9 10 mph 1014.2mb 37f 36f
Wed 02/13 11:54pm 9 11 mph 1014.2mb 37f 36f
11:48pm 9 10 mph 1014.2mb 37f 36f
11:42pm 9 13 mph 1014.2mb 37f 36f
11:36pm 11 14 mph 1014.3mb 37f 36f
11:30pm 13 15 mph 1014.5mb 37f 36f
11:24pm 14 16 mph 1014.4mb 37f 37f
11:18pm 15 17 mph 1014.4mb 37f 37f
11:12pm 16 20 mph 1014.3mb 37f 37f
11:06pm 17 20 mph 1014.3mb 37f 37f
11:00pm 16 20 mph 1014.2mb 37f 37f
10:54pm 17 18 mph 1014.2mb 37f 37f
10:48pm 18 21 mph 1014.1mb 37f 37f
10:42pm 18 21 mph 1014.1mb 37f 37f
10:36pm 17 22 mph 1014.1mb 37f 37f
10:30pm 16 18 mph 1014mb 37f 37f
10:24pm 14 16 mph 1013.9mb 37f 37f
10:18pm 14 16 mph 1013.8mb 37f 37f
10:12pm 14 15 mph 1013.7mb 37f 37f
10:06pm 14 16 mph 1013.7mb 37f 37f
10:00pm 15 18 mph 1013.6mb 37f 38f
9:54pm 17 21 mph 1013.6mb 37f 38f
9:48pm 20 22 mph 1013.6mb 37f 38f
9:42pm 21 25 mph 1013.5mb 37f 38f
9:36pm 21 24 mph 1013.4mb 37f 38f
9:30pm 23 28 mph 1013.3mb 37f 38f
9:24pm 29 31 mph 1013mb 37f 38f
9:18pm 25 29 mph 1013mb 37f 38f
9:12pm 28 32 mph 1012.8mb 37f 38f
9:06pm 24 29 mph 1012.8mb 37f 38f
9:00pm 23 28 mph 1012.7mb 37f 39f
8:54pm 23 29 mph 1012.6mb 37f 38f
8:48pm 20 24 mph 1012.6mb 37f 38f
8:42pm 22 26 mph 1012.5mb 37f 38f
8:36pm 24 29 mph 1012.4mb 37f 39f
8:30pm 22 29 mph 1012.5mb 37f 38f
8:24pm 21 24 mph 1012.6mb 37f 38f
8:18pm 20 22 mph 1012.6mb 37f 38f
8:12pm 20 22 mph 1012.6mb 37f 38f
8:06pm 18 22 mph 1012.6mb 37f 38f
8:00pm 21 24 mph 1012.5mb 37f 38f
7:54pm 23 25 mph 1012.4mb 37f 38f
7:48pm 22 25 mph 1012.2mb 37f 38f
7:42pm 22 24 mph 1012.3mb 37f 39f
7:36pm 21 24 mph 1012.2mb 37f 39f
7:30pm 18 21 mph 1012.2mb 37f 39f
7:24pm 16 20 mph 1012.2mb 37f 38f
7:18pm 16 20 mph 1012.1mb 37f 39f
7:12pm 20 22 mph 1011.9mb 37f 39f
7:06pm 21 25 mph 1011.7mb 37f 39f
7:00pm 23 28 mph 1011.6mb 37f 39f
6:48pm 22 24 mph 1011.5mb 37f 39f
6:42pm 18 22 mph 1011.4mb 37f 39f
6:36pm 16 18 mph 1011.3mb 37f 39f
6:30pm 17 21 mph 1011.1mb 37f 39f
6:24pm 15 16 mph 1011mb 37f 39f
6:18pm 15 17 mph 1010.9mb 37f 39f
6:12pm 15 16 mph 1010.8mb 37f 39f
6:06pm 14 15 mph 1010.7mb 37f 39f
6:00pm 14 17 mph 1010.7mb 37f 39f
5:54pm 16 17 mph 1010.5mb 37f 40f
5:48pm 16 18 mph 1010.4mb 37f 40f
5:42pm 17 20 mph 1010.2mb 37f 40f
5:36pm 18 22 mph 1010.1mb 37f 40f
5:30pm 20 23 mph 1009.9mb 37f 40f
5:24pm 20 23 mph 1009.7mb 37f 40f
5:18pm 16 21 mph 1009.7mb 37f 40f
5:12pm 20 22 mph 1009.6mb 37f 40f
5:06pm 15 22 mph 1009.6mb 37f 40f
5:00pm 22 26 mph 1009.5mb 37f 40f
4:30pm 18 22 mph 1009.5mb 37f 41f
4:24pm 18 25 mph 1009.4mb 37f 42f
4:18pm 22 25 mph 1009.3mb 37f 42f
4:12pm 21 25 mph 1009.3mb 37f 42f
4:06pm 18 26 mph 1009.1mb 37f 42f
4:00pm 23 26 mph 1008.9mb 37f 42f
3:54pm 24 29 mph 1008.8mb 37f 42f
3:48pm 24 28 mph 1008.8mb 37f 42f
3:42pm 17 22 mph 1008.8mb 37f 41f
3:36pm 17 24 mph 1008.8mb 37f 41f
3:30pm 16 22 mph 1008.7mb 37f 41f
3:24pm 20 24 mph 1008.7mb 37f 42f
3:18pm 21 24 mph 1008.7mb 37f 41f
3:12pm 22 25 mph 1008.7mb 37f 42f
3:06pm 28 31 mph 1008.4mb 37f 42f
3:00pm 25 28 mph 1008.3mb 37f 42f
2:54pm 17 21 mph 1008.4mb 37f 42f
2:48pm 20 25 mph 1008.4mb 37f 42f
2:42pm 23 26 mph 1008.3mb 37f 42f
2:36pm 18 23 mph 1008.3mb 37f 42f
2:30pm 18 24 mph 1008.1mb 37f 42f
2:24pm 21 24 mph 1007.9mb 37f 42f
2:18pm 23 30 mph 1008mb 37f 41f
2:12pm 24 29 mph 1007.9mb 37f 42f
2:06pm 20 26 mph 1008mb 37f 41f
2:00pm 23 28 mph 1007.9mb 37f 42f
1:30pm 21 28 mph 1008mb 37f 41f
1:24pm 18 24 mph 1007.9mb 37f 41f
1:18pm 21 28 mph 1008mb 37f 41f
1:12pm 24 25 mph 1007.9mb 37f 41f
1:06pm 23 25 mph 1007.9mb 37f 42f
1:00pm 25 28 mph 1007.9mb 37f 42f
12:54pm 21 26 mph 1007.9mb 37f 41f
12:48pm 21 30 mph 1007.9mb 37f 42f
12:42pm 26 30 mph 1007.8mb 37f 42f
12:36pm 24 28 mph 1007.8mb 37f 42f
12:30pm 26 29 mph 1008mb 37f 42f
12:24pm 25 30 mph 1008mb 37f 41f
12:18pm 24 29 mph 1008.1mb 37f 41f
12:12pm 24 29 mph 1008.1mb 37f 41f
12:06pm 23 28 mph 1008.3mb 37f 41f
12:00pm 29 33 mph 1008.2mb 37f 42f
11:54am 28 31 mph 1008.3mb 37f 42f
11:48am 30 36 mph 1008.2mb 37f 42f
11:42am 25 32 mph 1008.4mb 37f 42f